createdAt,value
2018-03-01T07:11:12.614Z,-7
2018-03-01T07:12:12.214Z,-7.02
2018-03-01T07:13:12.189Z,-6.83
2018-03-01T07:14:12.184Z,-6.83
2018-03-01T07:15:12.155Z,-6.8
2018-03-01T07:16:11.869Z,-6.66
2018-03-01T07:17:11.601Z,-6.66
2018-03-01T07:18:11.832Z,-6.76
2018-03-01T07:19:11.821Z,-6.79
2018-03-01T07:20:12.054Z,-6.76
2018-03-01T07:21:12.043Z,-6.77
2018-03-01T07:22:12.027Z,-6.87
2018-03-01T07:23:12.054Z,-6.87
2018-03-01T07:24:11.992Z,-6.84
2018-03-01T07:25:11.977Z,-6.89
2018-03-01T07:26:11.956Z,-6.87
2018-03-01T07:27:11.947Z,-6.84
2018-03-01T07:28:11.918Z,-6.8
2018-03-01T07:29:11.908Z,-6.77
2018-03-01T07:30:11.888Z,-6.66
2018-03-01T07:31:11.895Z,-6.59
2018-03-01T07:32:11.876Z,-6.49
2018-03-01T07:33:11.850Z,-6.43
2018-03-01T07:34:11.838Z,-6.32
2018-03-01T07:35:11.824Z,-6.46
2018-03-01T07:36:11.802Z,-6.54
2018-03-01T07:37:11.519Z,-6.49
2018-03-01T07:38:11.756Z,-6.58
2018-03-01T07:39:11.753Z,-6.55
2018-03-01T07:40:11.474Z,-6.63
2018-03-01T07:41:11.702Z,-6.5
2018-03-01T07:42:11.999Z,-6.46
2018-03-01T07:43:11.431Z,-6.44
2018-03-01T07:44:11.667Z,-6.4
2018-03-01T07:45:11.660Z,-6.34
2018-03-01T07:46:11.372Z,-6.47
2018-03-01T07:47:11.360Z,-6.52
2018-03-01T07:48:11.331Z,-6.62
2018-03-01T07:49:11.586Z,-6.82
2018-03-01T07:50:11.568Z,-6.84
2018-03-01T07:51:11.653Z,-6.86
2018-03-01T07:52:11.569Z,-6.92
2018-03-01T07:53:11.517Z,-7
2018-03-01T07:54:11.499Z,-6.95
2018-03-01T07:55:11.228Z,-6.95
2018-03-01T07:56:11.517Z,-6.95
2018-03-01T07:57:11.540Z,-7.07
2018-03-01T07:58:11.202Z,-7.05
2018-03-01T07:59:11.425Z,-7.11
2018-03-01T08:00:11.442Z,-7.18
2018-03-01T08:01:11.401Z,-7.11
2018-03-01T08:02:11.378Z,-7.15
2018-03-01T08:03:11.381Z,-7.19
2018-03-01T08:04:11.330Z,-7.22
2018-03-01T08:05:11.317Z,-7.3
2018-03-01T08:06:11.304Z,-7.33
2018-03-01T08:07:11.293Z,-7.44
2018-03-01T08:08:11.004Z,-7.44
2018-03-01T08:09:11.258Z,-7.51
2018-03-01T08:10:11.226Z,-7.46
2018-03-01T08:11:11.216Z,-7.55
2018-03-01T08:12:11.208Z,-7.68
2018-03-01T08:13:11.193Z,-7.52
2018-03-01T08:14:11.183Z,-7.57
2018-03-01T08:15:11.149Z,-7.41
2018-03-01T08:16:11.141Z,-7.39
2018-03-01T08:17:11.107Z,-7.44
2018-03-01T08:18:10.841Z,-7.46
2018-03-01T08:19:11.074Z,-7.48
2018-03-01T08:20:10.797Z,-7.36
2018-03-01T08:21:10.774Z,-7.4
2018-03-01T08:22:10.758Z,-7.3
2018-03-01T08:23:10.729Z,-7.34
2018-03-01T08:24:10.738Z,-7.34
2018-03-01T08:25:10.691Z,-7.33
2018-03-01T08:26:10.695Z,-7.19
2018-03-01T08:27:10.658Z,-7.37
2018-03-01T08:28:10.656Z,-7.19
2018-03-01T08:29:10.631Z,-7.12
2018-03-01T08:30:10.605Z,-7.13
2018-03-01T08:31:10.868Z,-7.22
2018-03-01T08:32:10.559Z,-7.29
2018-03-01T08:33:10.554Z,-7.33
2018-03-01T08:34:10.276Z,-7.37
2018-03-01T08:35:10.548Z,-7.4
2018-03-01T08:36:10.805Z,-7.46
2018-03-01T08:37:10.469Z,-7.43
2018-03-01T08:38:10.717Z,-7.43
2018-03-01T08:39:10.684Z,-7.41
2018-03-01T08:40:10.415Z,-7.39
2018-03-01T08:41:10.662Z,-7.26
2018-03-01T08:42:10.120Z,-7.23
2018-03-01T08:43:10.355Z,-7.18
2018-03-01T08:44:10.613Z,-7.11
2018-03-01T08:45:10.322Z,-7.18
2018-03-01T08:46:10.553Z,-7.12
2018-03-01T08:47:10.271Z,-6.97
2018-03-01T08:48:10.259Z,-6.97
2018-03-01T08:49:10.241Z,-7.04
2018-03-01T08:50:10.219Z,-6.82
2018-03-01T08:51:10.199Z,-6.77
2018-03-01T08:52:10.175Z,-6.76
2018-03-01T08:53:10.172Z,-6.79
2018-03-01T08:54:10.396Z,-6.83
2018-03-01T08:55:10.378Z,-6.8
2018-03-01T08:56:10.370Z,-6.76
2018-03-01T08:57:10.359Z,-6.87
2018-03-01T08:58:10.328Z,-7.07
2018-03-01T08:59:10.305Z,-7.11
2018-03-01T09:00:10.338Z,-7.15
2018-03-01T09:01:10.282Z,-7.12
2018-03-01T09:02:10.012Z,-7.29
2018-03-01T09:03:10.234Z,-7.26
2018-03-01T09:04:09.960Z,-7.3
2018-03-01T09:05:10.202Z,-7.19
2018-03-01T09:06:09.908Z,-7.26
2018-03-01T09:07:10.166Z,-7.25
2018-03-01T09:08:10.148Z,-7.16
2018-03-01T09:09:10.119Z,-7.19
2018-03-01T09:10:10.099Z,-7.16
2018-03-01T09:11:10.081Z,-7.19
2018-03-01T09:12:09.794Z,-7.07
2018-03-01T09:13:10.041Z,-7.07
2018-03-01T09:14:09.761Z,-7.15
2018-03-01T09:15:10.014Z,-7.01
2018-03-01T09:16:09.984Z,-7.02
2018-03-01T09:17:09.959Z,-7
2018-03-01T09:18:09.681Z,-7
2018-03-01T09:19:09.931Z,-7.02
2018-03-01T09:20:09.661Z,-6.94
2018-03-01T09:21:09.887Z,-6.87
2018-03-01T09:22:09.887Z,-6.79
2018-03-01T09:23:09.865Z,-6.73
2018-03-01T09:24:09.842Z,-6.74
2018-03-01T09:25:09.817Z,-6.65
2018-03-01T09:26:09.786Z,-6.63
2018-03-01T09:27:09.513Z,-6.65
2018-03-01T09:28:09.509Z,-6.52
2018-03-01T09:29:09.531Z,-6.55
2018-03-01T09:30:09.719Z,-6.55
2018-03-01T09:31:09.736Z,-6.52
2018-03-01T09:32:09.678Z,-6.43
2018-03-01T09:33:09.665Z,-6.49
2018-03-01T09:34:09.402Z,-6.39
2018-03-01T09:35:09.381Z,-6.43
2018-03-01T09:36:09.341Z,-6.29
2018-03-01T09:37:09.622Z,-6.36
2018-03-01T09:38:09.566Z,-6.26
2018-03-01T09:39:09.551Z,-6.26
2018-03-01T09:40:09.537Z,-6.25
2018-03-01T09:41:09.507Z,-6.13
2018-03-01T09:42:09.487Z,-6.08
2018-03-01T09:43:09.477Z,-6.05
2018-03-01T09:44:09.205Z,-6.04
2018-03-01T09:45:09.191Z,-6.08
2018-03-01T09:46:09.424Z,-6.04
2018-03-01T09:47:09.399Z,-6
2018-03-01T09:48:09.386Z,-5.89
2018-03-01T09:49:28.536Z,-5.9
2018-03-01T09:50:09.317Z,-5.87
2018-03-01T09:51:09.293Z,-5.98
2018-03-01T09:52:09.019Z,-5.86
2018-03-01T09:53:09.254Z,-5.87
2018-03-01T09:54:08.982Z,-5.79
2018-03-01T09:55:09.219Z,-5.76
2018-03-01T09:56:08.690Z,-5.84
2018-03-01T09:57:09.185Z,-5.94
2018-03-01T09:58:09.179Z,-5.97
2018-03-01T09:59:09.144Z,-5.92
2018-03-01T10:00:08.870Z,-6
2018-03-01T10:01:08.869Z,-5.86
2018-03-01T10:02:09.395Z,-5.86
2018-03-01T10:03:09.070Z,-5.92
2018-03-01T10:04:09.057Z,-5.97
2018-03-01T10:05:08.843Z,-5.89
2018-03-01T10:06:09.024Z,-5.87
2018-03-01T10:07:09.107Z,-5.79
2018-03-01T10:08:08.988Z,-5.83
2018-03-01T10:09:08.961Z,-5.8
2018-03-01T10:10:08.695Z,-5.92
2018-03-01T10:11:08.924Z,-5.97
2018-03-01T10:12:08.914Z,-5.94
2018-03-01T10:13:08.640Z,-5.97
2018-03-01T10:14:08.866Z,-5.94
2018-03-01T10:15:08.596Z,-5.98
2018-03-01T10:16:08.322Z,-5.98
2018-03-01T10:17:08.561Z,-5.93
2018-03-01T10:18:08.861Z,-5.89
2018-03-01T10:19:08.778Z,-5.87
2018-03-01T10:20:08.759Z,-5.87
2018-03-01T10:21:08.753Z,-5.82
2018-03-01T10:22:08.469Z,-5.75
2018-03-01T10:23:08.447Z,-5.69
2018-03-01T10:24:08.428Z,-5.75
2018-03-01T10:25:08.665Z,-5.76
2018-03-01T10:26:08.658Z,-5.66
2018-03-01T10:27:08.374Z,-5.68
2018-03-01T10:28:08.100Z,-5.68
2018-03-01T10:29:08.354Z,-5.69
2018-03-01T10:30:08.319Z,-5.61
2018-03-01T10:31:08.307Z,-5.75
2018-03-01T10:32:08.296Z,-5.69
2018-03-01T10:33:08.266Z,-5.66
2018-03-01T10:34:08.526Z,-5.68
2018-03-01T10:35:08.504Z,-5.69
2018-03-01T10:36:08.214Z,-5.62
2018-03-01T10:37:08.229Z,-5.61
2018-03-01T10:38:08.436Z,-5.61
2018-03-01T10:39:08.167Z,-5.48
2018-03-01T10:40:08.140Z,-5.61
2018-03-01T10:41:08.121Z,-5.59
2018-03-01T10:42:08.397Z,-5.47
2018-03-01T10:43:08.345Z,-5.54
2018-03-01T10:44:08.063Z,-5.43
2018-03-01T10:45:08.051Z,-5.37
2018-03-01T10:46:08.285Z,-5.35
2018-03-01T10:47:08.012Z,-5.18
2018-03-01T10:48:08.250Z,-5.26
2018-03-01T10:49:07.974Z,-5.26
2018-03-01T10:50:08.211Z,-5.3
2018-03-01T10:51:08.191Z,-5.36
2018-03-01T10:52:08.188Z,-5.27
2018-03-01T10:53:08.160Z,-5.3
2018-03-01T10:54:08.147Z,-5.33
2018-03-01T10:55:08.136Z,-5.36
2018-03-01T10:56:08.109Z,-5.37
2018-03-01T10:57:08.091Z,-5.27
2018-03-01T10:58:07.806Z,-5.43
2018-03-01T10:59:07.793Z,-5.5
2018-03-01T11:00:08.041Z,-5.47
2018-03-01T11:01:07.780Z,-5.46
2018-03-01T11:02:07.996Z,-5.61
2018-03-01T11:03:07.974Z,-5.62
2018-03-01T11:04:07.968Z,-5.5
2018-03-01T11:05:07.434Z,-5.48
2018-03-01T11:06:07.664Z,-5.47
2018-03-01T11:07:07.650Z,-5.5
2018-03-01T11:08:07.633Z,-5.54
2018-03-01T11:09:07.878Z,-5.62
2018-03-01T11:10:07.598Z,-5.61
2018-03-01T11:11:07.596Z,-5.74
2018-03-01T11:12:07.812Z,-5.53
2018-03-01T11:13:07.796Z,-5.59
2018-03-01T11:14:07.775Z,-5.72
2018-03-01T11:15:07.513Z,-5.64
2018-03-01T11:16:07.487Z,-5.61
2018-03-01T11:17:07.720Z,-5.64
2018-03-01T11:18:07.707Z,-5.46
2018-03-01T11:19:07.689Z,-5.5
2018-03-01T11:20:07.154Z,-5.48
2018-03-01T11:21:07.674Z,-5.5
2018-03-01T11:22:07.486Z,-5.55
2018-03-01T11:23:07.609Z,-5.5
2018-03-01T11:24:07.365Z,-5.57
2018-03-01T11:25:07.328Z,-5.46
2018-03-01T11:26:07.561Z,-5.39
2018-03-01T11:27:07.546Z,-5.54
2018-03-01T11:28:07.263Z,-5.3
2018-03-01T11:29:07.540Z,-5.35
2018-03-01T11:30:07.228Z,-5.33
2018-03-01T11:31:07.468Z,-5.29
2018-03-01T11:32:07.204Z,-5.32
2018-03-01T11:33:07.176Z,-5.26
2018-03-01T11:34:07.414Z,-5.27
2018-03-01T11:35:07.447Z,-5.18
2018-03-01T11:36:07.133Z,-5.07
2018-03-01T11:37:07.357Z,-5.08
2018-03-01T11:38:07.352Z,-5.07
2018-03-01T11:39:07.319Z,-4.99
2018-03-01T11:40:07.303Z,-5.1
2018-03-01T11:41:07.303Z,-5.03
2018-03-01T11:42:07.273Z,-5
2018-03-01T11:43:07.257Z,-4.97
2018-03-01T11:44:07.266Z,-5.03
2018-03-01T11:45:07.216Z,-4.95
2018-03-01T11:46:07.192Z,-4.99
2018-03-01T11:47:07.177Z,-4.85
2018-03-01T11:48:07.165Z,-4.79
2018-03-01T11:49:07.168Z,-4.69
2018-03-01T11:50:07.129Z,-4.78
2018-03-01T11:51:06.853Z,-4.71
2018-03-01T11:52:07.087Z,-4.69
2018-03-01T11:53:07.071Z,-4.69
2018-03-01T11:54:06.796Z,-4.68
2018-03-01T11:55:06.777Z,-4.65
2018-03-01T11:56:06.771Z,-4.75
2018-03-01T11:57:06.994Z,-4.81
2018-03-01T11:58:06.984Z,-4.77
2018-03-01T11:59:06.970Z,-4.77
2018-03-01T12:00:06.688Z,-4.78
2018-03-01T12:01:06.672Z,-4.81
2018-03-01T12:02:06.911Z,-4.83
2018-03-01T12:03:06.889Z,-4.72
2018-03-01T12:04:06.674Z,-4.75
2018-03-01T12:05:06.864Z,-4.74
2018-03-01T12:06:06.896Z,-4.78
2018-03-01T12:07:06.822Z,-4.72
2018-03-01T12:08:06.805Z,-4.6
2018-03-01T12:09:06.786Z,-4.67
2018-03-01T12:10:06.767Z,-4.58
2018-03-01T12:11:06.514Z,-4.5
2018-03-01T12:12:06.729Z,-4.42
2018-03-01T12:13:06.725Z,-4.43
2018-03-01T12:14:06.697Z,-4.42
2018-03-01T12:15:06.685Z,-4.6
2018-03-01T12:16:06.665Z,-4.51
2018-03-01T12:17:06.650Z,-4.5
2018-03-01T12:18:06.661Z,-4.58
2018-03-01T12:19:06.604Z,-4.49
2018-03-01T12:20:06.587Z,-4.43
2018-03-01T12:21:06.586Z,-4.51
2018-03-01T12:22:06.641Z,-4.6
2018-03-01T12:23:06.545Z,-4.54
2018-03-01T12:24:06.268Z,-4.57
2018-03-01T12:25:05.985Z,-4.54
2018-03-01T12:26:06.222Z,-4.53
2018-03-01T12:27:06.207Z,-4.49
2018-03-01T12:28:06.452Z,-4.33
2018-03-01T12:29:06.428Z,-4.3
2018-03-01T12:30:06.149Z,-4.35
2018-03-01T12:31:06.131Z,-4.33
2018-03-01T12:32:06.138Z,-4.29
2018-03-01T12:33:06.355Z,-4.28
2018-03-01T12:34:06.337Z,-4.24
2018-03-01T12:35:06.328Z,-4.29
2018-03-01T12:36:06.046Z,-4.33
2018-03-01T12:37:06.025Z,-4.36
2018-03-01T12:38:06.268Z,-4.29
2018-03-01T12:39:06.249Z,-4.24
2018-03-01T12:40:06.234Z,-4.3
2018-03-01T12:41:05.955Z,-4.24
2018-03-01T12:42:05.939Z,-4.32
2018-03-01T12:43:06.178Z,-4.25
2018-03-01T12:44:06.162Z,-4.35
2018-03-01T12:45:05.891Z,-4.36
2018-03-01T12:46:05.950Z,-4.38
2018-03-01T12:47:06.165Z,-4.42
2018-03-01T12:48:05.574Z,-4.42
2018-03-01T12:49:06.073Z,-4.49
2018-03-01T12:50:06.120Z,-4.38
2018-03-01T12:51:05.778Z,-4.32
2018-03-01T12:52:05.789Z,-4.28
2018-03-01T12:53:06.004Z,-4.3
2018-03-01T12:54:06.011Z,-4.24
2018-03-01T12:55:05.973Z,-4.28
2018-03-01T12:56:05.696Z,-4.2
2018-03-01T12:57:05.942Z,-4.21
2018-03-01T12:58:05.652Z,-4.18
2018-03-01T12:59:05.928Z,-4.17
2018-03-01T13:00:05.631Z,-4.17
2018-03-01T13:01:05.602Z,-4.1
2018-03-01T13:02:05.334Z,-3.99
2018-03-01T13:03:05.316Z,-3.85
2018-03-01T13:04:05.808Z,-3.81
2018-03-01T13:05:05.803Z,-3.72
2018-03-01T13:06:05.514Z,-3.69
2018-03-01T13:07:05.755Z,-3.82
2018-03-01T13:08:05.740Z,-3.9
2018-03-01T13:09:05.719Z,-3.96
2018-03-01T13:10:05.722Z,-4.04
2018-03-01T13:11:05.424Z,-4.12
2018-03-01T13:12:05.675Z,-4.21
2018-03-01T13:13:05.665Z,-4.07
2018-03-01T13:14:05.629Z,-4.1
2018-03-01T13:15:05.517Z,-4.01
2018-03-01T13:16:05.610Z,-3.99
2018-03-01T13:17:05.325Z,-3.96
2018-03-01T13:18:05.303Z,-3.93
2018-03-01T13:19:05.578Z,-3.9
2018-03-01T13:20:05.273Z,-3.88
2018-03-01T13:21:05.252Z,-3.85
2018-03-01T13:22:05.489Z,-3.88
2018-03-01T13:23:05.494Z,-3.75
2018-03-01T13:24:05.203Z,-3.76
2018-03-01T13:25:05.442Z,-3.9
2018-03-01T13:26:05.429Z,-3.9
2018-03-01T13:27:05.404Z,-3.91
2018-03-01T13:28:05.386Z,-3.97
2018-03-01T13:29:04.858Z,-3.96
2018-03-01T13:30:04.852Z,-3.93
2018-03-01T13:31:05.077Z,-3.96
2018-03-01T13:32:05.313Z,-3.97
2018-03-01T13:33:05.297Z,-3.96
2018-03-01T13:34:05.286Z,-3.94
2018-03-01T13:35:05.262Z,-3.85
2018-03-01T13:36:04.993Z,-3.88
2018-03-01T13:37:05.290Z,-3.79
2018-03-01T13:38:05.247Z,-3.76
2018-03-01T13:39:05.222Z,-3.75
2018-03-01T13:40:05.221Z,-3.75
2018-03-01T13:41:05.162Z,-3.54
2018-03-01T13:42:04.891Z,-3.62
2018-03-01T13:43:05.126Z,-3.54
2018-03-01T13:44:05.104Z,-3.53
2018-03-01T13:45:05.087Z,-3.57
2018-03-01T13:46:04.818Z,-3.54
2018-03-01T13:47:05.058Z,-3.56
2018-03-01T13:48:04.525Z,-3.63
2018-03-01T13:49:05.022Z,-3.57
2018-03-01T13:50:05.002Z,-3.67
2018-03-01T13:51:04.997Z,-3.71
2018-03-01T13:52:04.983Z,-3.67
2018-03-01T13:53:04.956Z,-3.71
2018-03-01T13:54:04.694Z,-3.67
2018-03-01T13:55:04.918Z,-3.76
2018-03-01T13:56:04.911Z,-3.71
2018-03-01T13:57:04.628Z,-3.79
2018-03-01T13:58:04.865Z,-3.9
2018-03-01T13:59:04.857Z,-3.82
2018-03-01T14:00:04.840Z,-3.71
2018-03-01T14:01:04.843Z,-3.76
2018-03-01T14:02:04.540Z,-3.76
2018-03-01T14:03:04.790Z,-3.76
2018-03-01T14:04:04.783Z,-3.79
2018-03-01T14:05:04.764Z,-3.69
2018-03-01T14:06:04.757Z,-3.76
2018-03-01T14:07:04.709Z,-3.76
2018-03-01T14:08:04.694Z,-3.76
2018-03-01T14:09:04.676Z,-3.64
2018-03-01T14:10:04.662Z,-3.72
2018-03-01T14:11:04.639Z,-3.85
2018-03-01T14:12:04.623Z,-3.9
2018-03-01T14:13:04.350Z,-3.82
2018-03-01T14:14:04.633Z,-3.9
2018-03-01T14:15:04.585Z,-3.85
2018-03-01T14:16:04.556Z,-3.86
2018-03-01T14:17:04.541Z,-3.85
2018-03-01T14:18:04.266Z,-3.85
2018-03-01T14:19:04.503Z,-3.85
2018-03-01T14:20:04.487Z,-3.76
2018-03-01T14:21:04.463Z,-3.71
2018-03-01T14:22:04.250Z,-3.67
2018-03-01T14:23:04.551Z,-3.64
2018-03-01T14:24:04.166Z,-3.57
2018-03-01T14:25:04.394Z,-3.57
2018-03-01T14:26:04.376Z,-3.6
2018-03-01T14:27:04.381Z,-3.62
2018-03-01T14:28:04.088Z,-3.57
2018-03-01T14:29:04.066Z,-3.6
2018-03-01T14:30:04.308Z,-3.59
2018-03-01T14:31:04.294Z,-3.63
2018-03-01T14:32:04.295Z,-3.62
2018-03-01T14:33:04.009Z,-3.62
2018-03-01T14:34:03.982Z,-3.69
2018-03-01T14:35:04.223Z,-3.57
2018-03-01T14:36:04.251Z,-3.62
2018-03-01T14:37:04.212Z,-3.54
2018-03-01T14:38:04.169Z,-3.62
2018-03-01T14:39:04.156Z,-3.62
2018-03-01T14:40:03.880Z,-3.6
2018-03-01T14:41:03.861Z,-3.63
2018-03-01T14:42:04.103Z,-3.54
2018-03-01T14:43:04.080Z,-3.63
2018-03-01T14:44:04.118Z,-3.62
2018-03-01T14:45:04.053Z,-3.54
2018-03-01T14:46:04.033Z,-3.67
2018-03-01T14:47:04.025Z,-3.72
2018-03-01T14:48:03.758Z,-3.82
2018-03-01T14:49:04.010Z,-3.93
2018-03-01T14:50:03.969Z,-3.82
2018-03-01T14:51:03.950Z,-3.85
2018-03-01T14:52:03.937Z,-3.96
2018-03-01T14:53:03.914Z,-3.88
2018-03-01T14:54:03.892Z,-3.97
2018-03-01T14:55:03.877Z,-3.93
2018-03-01T14:56:03.852Z,-3.99
2018-03-01T14:57:03.842Z,-3.91
2018-03-01T14:58:03.823Z,-3.99
2018-03-01T14:59:03.824Z,-4.07
2018-03-01T15:00:03.537Z,-4
2018-03-01T15:01:03.770Z,-4.12
2018-03-01T15:02:03.747Z,-4.15
2018-03-01T15:03:03.736Z,-4.21
2018-03-01T15:04:03.743Z,-4.21
2018-03-01T15:05:03.459Z,-4.2
2018-03-01T15:06:03.681Z,-4.22
2018-03-01T15:07:03.405Z,-4.28
2018-03-01T15:08:03.644Z,-4.21
2018-03-01T15:09:03.370Z,-4.28
2018-03-01T15:10:03.621Z,-4.32
2018-03-01T15:11:03.333Z,-4.15
2018-03-01T15:12:03.320Z,-4.2
2018-03-01T15:13:03.563Z,-4.25
2018-03-01T15:14:03.293Z,-4.21
2018-03-01T15:15:03.529Z,-4.2
2018-03-01T15:16:03.499Z,-4.14
2018-03-01T15:17:03.504Z,-4.18
2018-03-01T15:18:03.479Z,-4.03
2018-03-01T15:19:03.453Z,-3.93
2018-03-01T15:20:03.175Z,-3.94
2018-03-01T15:21:03.431Z,-3.85
2018-03-01T15:22:03.154Z,-3.75
2018-03-01T15:23:03.393Z,-3.67
2018-03-01T15:24:03.363Z,-3.63
2018-03-01T15:25:03.347Z,-3.57
2018-03-01T15:26:03.323Z,-3.6
2018-03-01T15:27:03.306Z,-3.54
2018-03-01T15:28:03.425Z,-3.52
2018-03-01T15:29:03.019Z,-3.54
2018-03-01T15:30:02.996Z,-3.59
2018-03-01T15:31:03.239Z,-3.54
2018-03-01T15:32:03.219Z,-3.63
2018-03-01T15:33:02.950Z,-3.54
2018-03-01T15:34:02.930Z,-3.56
2018-03-01T15:35:02.912Z,-3.71
2018-03-01T15:36:02.888Z,-3.71
2018-03-01T15:37:03.134Z,-3.69
2018-03-01T15:38:03.165Z,-3.81
2018-03-01T15:39:02.850Z,-3.76
2018-03-01T15:40:03.081Z,-3.69
2018-03-01T15:41:03.065Z,-3.76
2018-03-01T15:42:02.803Z,-3.86
2018-03-01T15:43:03.030Z,-3.88
2018-03-01T15:44:03.009Z,-3.79
2018-03-01T15:45:02.745Z,-3.67
2018-03-01T15:46:02.975Z,-3.63
2018-03-01T15:47:02.949Z,-3.72
2018-03-01T15:48:03.006Z,-3.71
2018-03-01T15:49:02.915Z,-3.67
2018-03-01T15:50:02.908Z,-3.69
2018-03-01T15:51:02.899Z,-3.75
2018-03-01T15:52:02.869Z,-3.81
2018-03-01T15:53:02.334Z,-3.76
2018-03-01T15:54:02.316Z,-3.72
2018-03-01T15:55:02.556Z,-3.67
2018-03-01T15:56:02.536Z,-3.75
2018-03-01T15:57:02.517Z,-3.71
2018-03-01T15:58:02.751Z,-3.63
2018-03-01T15:59:02.738Z,-3.63
2018-03-01T16:00:02.475Z,-3.59
2018-03-01T16:01:02.704Z,-3.52
2018-03-01T16:02:02.428Z,-3.59
2018-03-01T16:03:02.410Z,-3.71
2018-03-01T16:04:02.649Z,-3.6
2018-03-01T16:05:02.636Z,-3.75
2018-03-01T16:06:02.361Z,-3.78
2018-03-01T16:07:02.595Z,-3.85
2018-03-01T16:08:02.581Z,-3.82
2018-03-01T16:09:02.605Z,-3.88
2018-03-01T16:10:02.540Z,-3.91
2018-03-01T16:11:02.291Z,-3.96
2018-03-01T16:12:02.254Z,-3.93
2018-03-01T16:13:02.495Z,-3.9
2018-03-01T16:14:02.479Z,-3.91
2018-03-01T16:15:02.472Z,-3.93
2018-03-01T16:16:02.175Z,-3.96
2018-03-01T16:17:02.427Z,-3.99
2018-03-01T16:18:02.417Z,-4.04
2018-03-01T16:19:02.147Z,-4.15
2018-03-01T16:20:02.367Z,-4.2
2018-03-01T16:21:02.345Z,-4.21
2018-03-01T16:22:02.339Z,-4.15
2018-03-01T16:23:02.318Z,-4.18
2018-03-01T16:24:01.781Z,-4.29
2018-03-01T16:25:02.014Z,-4.22
2018-03-01T16:26:02.255Z,-4.29
2018-03-01T16:27:01.978Z,-4.24
2018-03-01T16:28:02.224Z,-4.25
2018-03-01T16:29:02.200Z,-4.25
2018-03-01T16:30:01.668Z,-4.18
2018-03-01T16:31:01.910Z,-4.28
2018-03-01T16:32:02.450Z,-4.33
2018-03-01T16:33:02.123Z,-4.24
2018-03-01T16:34:01.857Z,-4.32
2018-03-01T16:35:02.093Z,-4.32
2018-03-01T16:36:02.084Z,-4.49
2018-03-01T16:37:02.048Z,-4.49
2018-03-01T16:38:02.034Z,-4.51
2018-03-01T16:39:02.014Z,-4.46
2018-03-01T16:40:01.755Z,-4.43
2018-03-01T16:41:01.980Z,-4.42
2018-03-01T16:42:01.970Z,-4.61
2018-03-01T16:43:01.946Z,-4.57
2018-03-01T16:44:01.977Z,-4.6
2018-03-01T16:45:01.906Z,-4.61
2018-03-01T16:46:01.890Z,-4.65
2018-03-01T16:47:01.622Z,-4.68
2018-03-01T16:48:01.858Z,-4.67
2018-03-01T16:49:01.832Z,-4.67
2018-03-01T16:50:01.852Z,-4.71
2018-03-01T16:51:01.819Z,-4.74
2018-03-01T16:52:01.787Z,-4.81
2018-03-01T16:53:01.756Z,-4.79
2018-03-01T16:54:01.738Z,-4.93
2018-03-01T16:55:01.468Z,-4.95
2018-03-01T16:56:01.701Z,-4.97
2018-03-01T16:57:01.693Z,-4.95
2018-03-01T16:58:01.682Z,-5.17
2018-03-01T16:59:01.393Z,-5.06
2018-03-01T17:00:01.372Z,-5.14
2018-03-01T17:01:01.630Z,-5.08
2018-03-01T17:02:01.607Z,-4.97
2018-03-01T17:03:01.585Z,-5.06
2018-03-01T17:04:01.296Z,-5.07
2018-03-01T17:05:01.543Z,-5.11
2018-03-01T17:06:01.516Z,-5.11
2018-03-01T17:07:01.494Z,-5.17
2018-03-01T17:08:01.478Z,-5.29
2018-03-01T17:09:01.208Z,-5.27
2018-03-01T17:10:01.496Z,-5.33
2018-03-01T17:11:01.419Z,-5.48
2018-03-01T17:12:01.410Z,-5.48
2018-03-01T17:13:01.401Z,-5.37
2018-03-01T17:14:01.109Z,-5.5
2018-03-01T17:15:01.343Z,-5.47
2018-03-01T17:16:01.327Z,-5.62
2018-03-01T17:17:01.322Z,-5.55
2018-03-01T17:18:01.312Z,-5.54
2018-03-01T17:19:01.273Z,-5.43
2018-03-01T17:20:01.259Z,-5.53
2018-03-01T17:21:00.980Z,-5.5
2018-03-01T17:22:01.214Z,-5.62
2018-03-01T17:23:01.196Z,-5.57
2018-03-01T17:24:01.190Z,-5.47
2018-03-01T17:25:01.175Z,-5.59
2018-03-01T17:26:00.887Z,-5.54
2018-03-01T17:27:01.282Z,-5.65
2018-03-01T17:28:01.097Z,-5.59
2018-03-01T17:29:01.089Z,-5.62
2018-03-01T17:30:01.060Z,-5.51
2018-03-01T17:31:00.798Z,-5.64
2018-03-01T17:32:01.027Z,-5.71
2018-03-01T17:33:00.748Z,-5.69
2018-03-01T17:34:00.986Z,-5.74
2018-03-01T17:35:01.052Z,-5.66
2018-03-01T17:36:00.958Z,-5.65
2018-03-01T17:37:00.672Z,-5.69
2018-03-01T17:38:00.908Z,-5.72
2018-03-01T17:39:00.892Z,-5.62
2018-03-01T17:40:00.871Z,-5.54
2018-03-01T17:41:00.600Z,-5.64
2018-03-01T17:42:00.836Z,-5.59
2018-03-01T17:43:00.557Z,-5.64
2018-03-01T17:44:00.842Z,-5.57
2018-03-01T17:45:00.772Z,-5.61
2018-03-01T17:46:00.770Z,-5.65
2018-03-01T17:47:00.735Z,-5.68
2018-03-01T17:48:00.723Z,-5.69
2018-03-01T17:49:00.697Z,-5.66
2018-03-01T17:50:00.688Z,-5.86
2018-03-01T17:51:00.702Z,-5.8
2018-03-01T17:52:00.649Z,-5.86
2018-03-01T17:53:00.619Z,-5.79
2018-03-01T17:54:00.349Z,-5.76
2018-03-01T17:55:00.328Z,-5.82
2018-03-01T17:56:00.062Z,-5.83
2018-03-01T17:57:00.541Z,-5.86
2018-03-01T17:58:00.536Z,-5.8
2018-03-01T17:59:00.503Z,-5.82
2018-03-01T18:00:00.538Z,-5.83
2018-03-01T18:01:00.474Z,-5.86
2018-03-01T18:02:00.450Z,-5.79
2018-03-01T18:03:00.436Z,-5.82
2018-03-01T18:04:00.410Z,-5.87
2018-03-01T18:05:00.390Z,-5.89
2018-03-01T18:06:00.374Z,-5.86
2018-03-01T18:07:00.378Z,-5.87
2018-03-01T18:08:00.336Z,-5.86
2018-03-01T18:09:00.318Z,-5.9
2018-03-01T18:10:00.037Z,-5.98
2018-03-01T18:11:00.022Z,-5.94
2018-03-01T18:12:00.254Z,-5.94
2018-03-01T18:13:00.245Z,-5.94
2018-03-01T18:14:00.225Z,-5.93
2018-03-01T18:15:00.199Z,-5.97
2018-03-01T18:16:00.179Z,-5.93
2018-03-01T18:17:00.164Z,-5.94
2018-03-01T18:18:00.153Z,-5.97
2018-03-01T18:18:59.864Z,-5.93
2018-03-01T18:20:00.109Z,-5.92
2018-03-01T18:21:00.224Z,-5.92
2018-03-01T18:22:00.060Z,-5.92
2018-03-01T18:23:00.044Z,-5.86
2018-03-01T18:24:00.025Z,-5.92
2018-03-01T18:25:00.003Z,-5.87
2018-03-01T18:25:59.728Z,-5.94
2018-03-01T18:26:59.968Z,-5.93
2018-03-01T18:27:59.942Z,-5.92
2018-03-01T18:28:59.922Z,-6.07
2018-03-01T18:29:59.908Z,-6.08
2018-03-01T18:30:59.634Z,-6.05
2018-03-01T18:31:59.873Z,-6.13
2018-03-01T18:32:59.600Z,-6.13
2018-03-01T18:33:59.578Z,-6.11
2018-03-01T18:34:59.807Z,-6.13
2018-03-01T18:35:59.792Z,-6.1
2018-03-01T18:36:59.769Z,-6.16
2018-03-01T18:37:59.749Z,-6.16
2018-03-01T18:38:59.742Z,-6.13
2018-03-01T18:39:59.715Z,-6.19
2018-03-01T18:40:59.690Z,-6.22
2018-03-01T18:41:59.678Z,-6.19
2018-03-01T18:42:59.678Z,-6.21
2018-03-01T18:43:59.632Z,-6.22
2018-03-01T18:44:59.370Z,-6.22
2018-03-01T18:45:59.596Z,-6.15
2018-03-01T18:46:59.575Z,-6.15
2018-03-01T18:47:59.568Z,-6.07
2018-03-01T18:48:59.555Z,-6.16
2018-03-01T18:49:59.519Z,-6.22
2018-03-01T18:50:59.500Z,-6.21
2018-03-01T18:51:59.480Z,-6.25
2018-03-01T18:52:59.210Z,-6.29
2018-03-01T18:53:59.438Z,-6.25
2018-03-01T18:54:59.420Z,-6.43
2018-03-01T18:55:59.408Z,-6.34
2018-03-01T18:56:59.388Z,-6.42
2018-03-01T18:57:59.362Z,-6.5
2018-03-01T18:58:59.343Z,-6.66
2018-03-01T18:59:59.390Z,-6.58
2018-03-01T19:00:59.299Z,-6.73
2018-03-01T19:01:59.281Z,-6.69
2018-03-01T19:02:59.274Z,-6.66
2018-03-01T19:03:59.246Z,-6.71
2018-03-01T19:04:58.966Z,-6.66
2018-03-01T19:05:59.204Z,-6.76
2018-03-01T19:06:59.192Z,-6.65
2018-03-01T19:07:59.160Z,-6.55
2018-03-01T19:08:59.141Z,-6.49
2018-03-01T19:09:58.870Z,-6.49
2018-03-01T19:10:58.847Z,-6.46
2018-03-01T19:11:59.082Z,-6.46
2018-03-01T19:12:59.063Z,-6.46
2018-03-01T19:13:58.788Z,-6.5
2018-03-01T19:14:59.044Z,-6.5
2018-03-01T19:15:59.024Z,-6.58
2018-03-01T19:16:58.987Z,-6.55
2018-03-01T19:17:59.015Z,-6.69
2018-03-01T19:18:58.951Z,-6.66
2018-03-01T19:19:58.674Z,-6.65
2018-03-01T19:20:58.920Z,-6.66
2018-03-01T19:21:58.891Z,-6.65
2018-03-01T19:22:58.866Z,-6.8
2018-03-01T19:23:59.158Z,-6.87
2018-03-01T19:24:58.828Z,-6.79
2018-03-01T19:25:58.819Z,-6.8
2018-03-01T19:26:58.532Z,-6.92
2018-03-01T19:27:58.789Z,-6.91
2018-03-01T19:28:58.498Z,-7.07
2018-03-01T19:29:58.732Z,-6.94
2018-03-01T19:30:58.713Z,-7.02
2018-03-01T19:31:58.697Z,-7.02
2018-03-01T19:32:58.668Z,-7.08
2018-03-01T19:33:58.643Z,-7.13
2018-03-01T19:34:58.625Z,-6.98
2018-03-01T19:35:58.614Z,-7.12
2018-03-01T19:36:58.590Z,-7.07
2018-03-01T19:37:58.649Z,-7.05
2018-03-01T19:38:58.547Z,-7.07
2018-03-01T19:39:58.530Z,-7.08
2018-03-01T19:40:58.505Z,-7.07
2018-03-01T19:41:57.978Z,-7.21
2018-03-01T19:42:58.473Z,-7.11
2018-03-01T19:43:58.457Z,-7.08
2018-03-01T19:44:58.427Z,-7.05
2018-03-01T19:45:58.426Z,-7.08
2018-03-01T19:46:58.414Z,-7.08
2018-03-01T19:47:58.363Z,-7.18
2018-03-01T19:48:58.342Z,-7.16
2018-03-01T19:49:58.329Z,-7
2018-03-01T19:50:58.318Z,-7.08
2018-03-01T19:51:57.773Z,-7.12
2018-03-01T19:52:58.271Z,-7.12
2018-03-01T19:53:58.255Z,-7.18
2018-03-01T19:54:58.224Z,-7.19
2018-03-01T19:55:58.206Z,-7.25
2018-03-01T19:56:58.184Z,-7.23
2018-03-01T19:57:57.910Z,-7.22
2018-03-01T19:58:58.172Z,-7.3
2018-03-01T19:59:58.127Z,-7.33
2018-03-01T20:00:58.119Z,-7.33
2018-03-01T20:01:57.828Z,-7.29
2018-03-01T20:02:58.064Z,-7.29
2018-03-01T20:03:58.041Z,-7.31
2018-03-01T20:04:58.055Z,-7.26
2018-03-01T20:05:57.748Z,-7.36